メインページ
METAR-TAF:

METAR-TAF

空港 :

ムンバイ, インド

チャトラパティ・シヴァージー国際空港

緯度: 19-07N, 経度: 072-51E, 海抜: 8m

現時点の気象観測

当レポートは33分前の04:30(UTC)に作成
南/南東の風 6kt
気温 30°C
湿度 79%
気圧 1010 hPa
視程: 2200m
高度2000ftの雲はほとんどない
高度10000ftの雲は散在している

METAR: VABB 210430Z 15006KT 2200 BR FEW020 SCT100 30/26 Q1010 NOSIG

時間: 10:33 (05:03 UTC)

予報

当レポートは6時間3分前の23:00(UTC)に作成
予報は21日の 00時(UTC)から 22日の 06時(UTC)まで有効
の風 4kt
視程: 1500m
高度10000ftの雲はほとんどない
靄, 煙霧
21日の 04時(UTC)から 21日の 06時(UTC)まで徐々に
視程: 3000m
煙霧
21日の 07時(UTC)から 21日の 09時(UTC)まで徐々に
西/南西の風 8kt
21日の 15時(UTC)から 21日の 17時(UTC)まで徐々に
の風 4kt
視程: 2500m
煙霧
21日の 18時(UTC)から 21日の 20時(UTC)まで徐々に
の風 kt
22日の 00時(UTC)から 22日の 02時(UTC)まで徐々に
の風 4kt
視程: 1500m
靄, 煙霧
22日の 04時(UTC)から 22日の 06時(UTC)まで徐々に
視程: 2500m
煙霧

TAF: VABB 202300Z 2100/2206 10004KT 1500 BR HZ FEW100 BECMG 2104/2106 3000 HZ BECMG 2107/2109 24008KT BECMG 2115/2117 10004KT 2500 HZ BECMG 2118/2120 00000KT BECMG 2200/2202 10004KT 1500 BR HZ BECMG 2204/2206 2500 HZ

4,000以上の空港の気象観測と天気予報(METAR報とTAF報)

利用可能な観測所は地図上に黄色い丸と赤い丸で示す。

丸の上にカーソルを重ねると観測所名を参照できる。

次にクリックすると気象観測と天気予報を参照できる。

マップの切り替え:黒色「×」印の緑ボタンをクリックして拡大、「-」印の緑ボタンをクリックして縮小、緑色の三角印をクリックして隣りの地図に切り替え


METAR-TAF: